sensor_id;sensor_type;location;lat;lon;timestamp;pressure;altitude;pressure_sealevel;temperature;humidity
38303;BME280;24103;42.454;27.400;2023-08-01T00:00:34;100160.47;;;23.36;100.00
38303;BME280;24103;42.454;27.400;2023-08-01T00:02:59;100149.28;;;23.24;100.00
38303;BME280;24103;42.454;27.400;2023-08-01T00:05:25;100153.56;;;23.18;100.00
38303;BME280;24103;42.454;27.400;2023-08-01T00:07:52;100153.91;;;23.15;100.00
38303;BME280;24103;42.454;27.400;2023-08-01T00:10:18;100152.94;;;23.31;100.00
38303;BME280;24103;42.454;27.400;2023-08-01T00:12:43;100158.47;;;23.38;100.00
38303;BME280;24103;42.454;27.400;2023-08-01T00:15:09;100163.63;;;23.25;100.00
38303;BME280;24103;42.454;27.400;2023-08-01T00:17:35;100152.06;;;23.16;100.00
38303;BME280;24103;42.454;27.400;2023-08-01T00:20:02;100151.69;;;23.19;100.00
38303;BME280;24103;42.454;27.400;2023-08-01T00:22:28;100121.38;;;22.94;100.00
38303;BME280;24103;42.454;27.400;2023-08-01T00:24:54;100145.66;;;23.17;100.00
38303;BME280;24103;42.454;27.400;2023-08-01T00:27:20;100146.41;;;23.03;100.00
38303;BME280;24103;42.454;27.400;2023-08-01T00:29:45;100140.72;;;22.97;100.00
38303;BME280;24103;42.454;27.400;2023-08-01T00:32:11;100132.69;;;22.89;100.00
38303;BME280;24103;42.454;27.400;2023-08-01T00:34:37;100144.13;;;22.91;100.00
38303;BME280;24103;42.454;27.400;2023-08-01T00:37:03;100142.41;;;22.75;100.00
38303;BME280;24103;42.454;27.400;2023-08-01T00:39:28;100129.34;;;22.64;100.00
38303;BME280;24103;42.454;27.400;2023-08-01T00:41:54;100135.97;;;22.76;100.00
38303;BME280;24103;42.454;27.400;2023-08-01T00:44:19;100136.16;;;22.75;100.00
38303;BME280;24103;42.454;27.400;2023-08-01T00:46:45;100133.81;;;22.72;100.00
38303;BME280;24103;42.454;27.400;2023-08-01T00:49:11;100127.22;;;22.51;100.00
38303;BME280;24103;42.454;27.400;2023-08-01T00:51:36;100132.94;;;22.48;100.00
38303;BME280;24103;42.454;27.400;2023-08-01T00:54:02;100125.19;;;22.53;100.00
38303;BME280;24103;42.454;27.400;2023-08-01T00:56:28;100119.97;;;22.52;100.00
38303;BME280;24103;42.454;27.400;2023-08-01T00:58:53;100126.22;;;22.52;100.00
38303;BME280;24103;42.454;27.400;2023-08-01T01:01:19;100132.25;;;22.54;100.00
38303;BME280;24103;42.454;27.400;2023-08-01T01:03:45;100114.50;;;22.37;100.00
38303;BME280;24103;42.454;27.400;2023-08-01T01:08:41;100122.75;;;22.35;100.00
38303;BME280;24103;42.454;27.400;2023-08-01T01:11:07;100123.94;;;22.33;100.00
38303;BME280;24103;42.454;27.400;2023-08-01T01:13:33;100119.06;;;22.28;100.00
38303;BME280;24103;42.454;27.400;2023-08-01T01:15:59;100115.06;;;22.16;100.00
38303;BME280;24103;42.454;27.400;2023-08-01T01:18:24;100113.56;;;22.13;100.00
38303;BME280;24103;42.454;27.400;2023-08-01T01:20:50;100115.91;;;22.16;100.00
38303;BME280;24103;42.454;27.400;2023-08-01T01:23:16;100105.19;;;22.08;100.00
38303;BME280;24103;42.454;27.400;2023-08-01T01:25:43;100110.22;;;22.11;100.00
38303;BME280;24103;42.454;27.400;2023-08-01T01:28:11;100118.63;;;22.16;100.00
38303;BME280;24103;42.454;27.400;2023-08-01T01:30:37;100117.41;;;22.19;100.00
38303;BME280;24103;42.454;27.400;2023-08-01T01:33:03;100110.56;;;22.08;100.00
38303;BME280;24103;42.454;27.400;2023-08-01T01:35:32;100108.75;;;22.00;100.00
38303;BME280;24103;42.454;27.400;2023-08-01T01:37:58;100101.38;;;21.94;100.00
38303;BME280;24103;42.454;27.400;2023-08-01T01:40:27;100108.56;;;22.02;100.00
38303;BME280;24103;42.454;27.400;2023-08-01T01:42:52;100112.47;;;21.99;100.00
38303;BME280;24103;42.454;27.400;2023-08-01T01:45:18;100099.41;;;21.88;100.00
38303;BME280;24103;42.454;27.400;2023-08-01T01:47:43;100119.19;;;21.95;100.00
38303;BME280;24103;42.454;27.400;2023-08-01T01:50:09;100121.88;;;21.95;100.00
38303;BME280;24103;42.454;27.400;2023-08-01T01:52:34;100110.13;;;21.96;100.00
38303;BME280;24103;42.454;27.400;2023-08-01T01:55:00;100127.88;;;22.05;100.00
38303;BME280;24103;42.454;27.400;2023-08-01T01:57:25;100123.00;;;22.09;100.00
38303;BME280;24103;42.454;27.400;2023-08-01T01:59:50;100098.78;;;22.09;100.00
38303;BME280;24103;42.454;27.400;2023-08-01T02:02:16;100115.44;;;22.13;100.00
38303;BME280;24103;42.454;27.400;2023-08-01T02:04:41;100122.34;;;22.07;100.00
38303;BME280;24103;42.454;27.400;2023-08-01T02:07:10;100112.59;;;22.06;100.00
38303;BME280;24103;42.454;27.400;2023-08-01T02:09:36;100119.84;;;21.97;100.00
38303;BME280;24103;42.454;27.400;2023-08-01T02:12:01;100125.75;;;21.93;100.00
38303;BME280;24103;42.454;27.400;2023-08-01T02:14:29;100120.22;;;21.86;100.00
38303;BME280;24103;42.454;27.400;2023-08-01T02:16:54;100132.63;;;21.95;100.00
38303;BME280;24103;42.454;27.400;2023-08-01T02:19:20;100129.25;;;22.01;100.00
38303;BME280;24103;42.454;27.400;2023-08-01T02:21:45;100122.03;;;22.02;100.00
38303;BME280;24103;42.454;27.400;2023-08-01T02:24:11;100136.75;;;22.22;100.00
38303;BME280;24103;42.454;27.400;2023-08-01T02:26:36;100132.19;;;22.31;100.00
38303;BME280;24103;42.454;27.400;2023-08-01T02:29:02;100139.06;;;22.34;100.00
38303;BME280;24103;42.454;27.400;2023-08-01T02:31:27;100138.53;;;22.38;100.00
38303;BME280;24103;42.454;27.400;2023-08-01T02:33:53;100107.00;;;22.16;100.00
38303;BME280;24103;42.454;27.400;2023-08-01T02:36:18;100140.59;;;22.36;100.00
38303;BME280;24103;42.454;27.400;2023-08-01T02:38:44;100142.44;;;22.36;100.00
38303;BME280;24103;42.454;27.400;2023-08-01T02:41:10;100142.13;;;22.22;100.00
38303;BME280;24103;42.454;27.400;2023-08-01T02:43:35;100129.50;;;22.23;100.00
38303;BME280;24103;42.454;27.400;2023-08-01T02:46:01;100125.69;;;22.09;100.00
38303;BME280;24103;42.454;27.400;2023-08-01T02:48:27;100137.13;;;22.11;100.00
38303;BME280;24103;42.454;27.400;2023-08-01T02:50:52;100124.69;;;22.10;100.00
38303;BME280;24103;42.454;27.400;2023-08-01T02:53:18;100139.38;;;21.99;100.00
38303;BME280;24103;42.454;27.400;2023-08-01T02:55:44;100130.47;;;21.90;100.00
38303;BME280;24103;42.454;27.400;2023-08-01T02:58:11;100142.25;;;21.89;100.00
38303;BME280;24103;42.454;27.400;2023-08-01T03:00:40;100146.56;;;22.07;100.00
38303;BME280;24103;42.454;27.400;2023-08-01T03:03:06;100148.72;;;22.12;100.00
38303;BME280;24103;42.454;27.400;2023-08-01T03:05:32;100151.94;;;22.07;100.00
38303;BME280;24103;42.454;27.400;2023-08-01T03:08:00;100136.84;;;21.98;100.00
38303;BME280;24103;42.454;27.400;2023-08-01T03:10:26;100134.69;;;21.85;100.00
38303;BME280;24103;42.454;27.400;2023-08-01T03:12:51;100139.16;;;22.01;100.00
38303;BME280;24103;42.454;27.400;2023-08-01T03:15:17;100152.94;;;22.14;100.00
38303;BME280;24103;42.454;27.400;2023-08-01T03:17:42;100142.88;;;22.08;100.00
38303;BME280;24103;42.454;27.400;2023-08-01T03:20:08;100153.91;;;22.21;100.00
38303;BME280;24103;42.454;27.400;2023-08-01T03:22:38;100132.84;;;22.33;100.00
38303;BME280;24103;42.454;27.400;2023-08-01T03:25:05;100154.66;;;22.47;100.00
38303;BME280;24103;42.454;27.400;2023-08-01T03:27:33;100148.19;;;22.64;100.00
38303;BME280;24103;42.454;27.400;2023-08-01T03:29:59;100153.13;;;22.84;100.00
38303;BME280;24103;42.454;27.400;2023-08-01T03:32:24;100141.19;;;23.01;100.00
38303;BME280;24103;42.454;27.400;2023-08-01T03:34:50;100139.38;;;23.25;100.00
38303;BME280;24103;42.454;27.400;2023-08-01T03:37:16;100153.88;;;23.39;100.00
38303;BME280;24103;42.454;27.400;2023-08-01T03:39:43;100146.00;;;23.52;100.00
38303;BME280;24103;42.454;27.400;2023-08-01T03:42:08;100133.47;;;23.59;100.00
38303;BME280;24103;42.454;27.400;2023-08-01T03:44:34;100151.44;;;23.82;100.00
38303;BME280;24103;42.454;27.400;2023-08-01T03:46:59;100152.78;;;23.86;100.00
38303;BME280;24103;42.454;27.400;2023-08-01T03:49:25;100150.09;;;23.86;100.00
38303;BME280;24103;42.454;27.400;2023-08-01T03:51:50;100161.72;;;24.01;100.00
38303;BME280;24103;42.454;27.400;2023-08-01T03:54:16;100150.38;;;24.06;100.00
38303;BME280;24103;42.454;27.400;2023-08-01T03:56:42;100155.53;;;24.52;100.00
38303;BME280;24103;42.454;27.400;2023-08-01T03:59:10;100139.84;;;25.77;100.00
38303;BME280;24103;42.454;27.400;2023-08-01T04:01:36;100136.03;;;27.10;100.00
38303;BME280;24103;42.454;27.400;2023-08-01T04:04:02;100127.78;;;28.17;95.24
38303;BME280;24103;42.454;27.400;2023-08-01T04:06:27;100115.28;;;28.93;85.71
38303;BME280;24103;42.454;27.400;2023-08-01T04:08:53;100127.06;;;29.62;81.66
38303;BME280;24103;42.454;27.400;2023-08-01T04:11:19;100121.53;;;30.61;74.18
38303;BME280;24103;42.454;27.400;2023-08-01T04:13:44;100104.22;;;31.21;66.28
38303;BME280;24103;42.454;27.400;2023-08-01T04:16:10;100103.22;;;31.70;60.89
38303;BME280;24103;42.454;27.400;2023-08-01T04:18:35;100100.28;;;32.12;59.12
38303;BME280;24103;42.454;27.400;2023-08-01T04:21:01;100100.97;;;32.48;57.31
38303;BME280;24103;42.454;27.400;2023-08-01T04:23:27;100092.91;;;32.70;55.05
38303;BME280;24103;42.454;27.400;2023-08-01T04:25:52;100104.63;;;32.82;53.81
38303;BME280;24103;42.454;27.400;2023-08-01T04:28:18;100110.13;;;32.99;53.11
38303;BME280;24103;42.454;27.400;2023-08-01T04:30:51;100119.22;;;32.71;54.14
38303;BME280;24103;42.454;27.400;2023-08-01T04:33:17;100122.28;;;32.92;53.21
38303;BME280;24103;42.454;27.400;2023-08-01T04:35:43;100114.84;;;33.55;50.78
38303;BME280;24103;42.454;27.400;2023-08-01T04:38:08;100116.47;;;34.61;47.96
38303;BME280;24103;42.454;27.400;2023-08-01T04:40:35;100104.09;;;35.18;46.11
38303;BME280;24103;42.454;27.400;2023-08-01T04:43:02;100091.16;;;35.51;44.38
38303;BME280;24103;42.454;27.400;2023-08-01T04:45:27;100103.75;;;35.95;43.37
38303;BME280;24103;42.454;27.400;2023-08-01T04:47:53;100102.47;;;36.18;42.29
38303;BME280;24103;42.454;27.400;2023-08-01T04:50:18;100103.72;;;36.58;42.24
38303;BME280;24103;42.454;27.400;2023-08-01T04:52:44;100082.53;;;36.74;40.36
38303;BME280;24103;42.454;27.400;2023-08-01T04:55:09;100100.91;;;36.38;40.79
38303;BME280;24103;42.454;27.400;2023-08-01T04:57:35;100104.13;;;36.14;41.29
38303;BME280;24103;42.454;27.400;2023-08-01T05:00:01;100098.22;;;36.63;39.66
38303;BME280;24103;42.454;27.400;2023-08-01T05:02:27;100093.81;;;37.39;38.53
38303;BME280;24103;42.454;27.400;2023-08-01T05:04:52;100095.78;;;38.09;38.02
38303;BME280;24103;42.454;27.400;2023-08-01T05:07:18;100092.66;;;37.71;37.86
38303;BME280;24103;42.454;27.400;2023-08-01T05:09:43;100094.59;;;37.66;38.09
38303;BME280;24103;42.454;27.400;2023-08-01T05:12:08;100110.63;;;36.92;39.71
38303;BME280;24103;42.454;27.400;2023-08-01T05:14:34;100116.22;;;36.18;41.44
38303;BME280;24103;42.454;27.400;2023-08-01T05:17:00;100117.59;;;36.10;41.24
38303;BME280;24103;42.454;27.400;2023-08-01T05:19:26;100130.97;;;35.91;41.85
38303;BME280;24103;42.454;27.400;2023-08-01T05:21:51;100126.78;;;35.78;42.63
38303;BME280;24103;42.454;27.400;2023-08-01T05:24:17;100133.47;;;35.98;42.29
38303;BME280;24103;42.454;27.400;2023-08-01T05:26:42;100128.91;;;35.71;42.11
38303;BME280;24103;42.454;27.400;2023-08-01T05:29:08;100137.97;;;35.29;43.75
38303;BME280;24103;42.454;27.400;2023-08-01T05:31:33;100140.47;;;34.98;44.06
38303;BME280;24103;42.454;27.400;2023-08-01T05:33:59;100148.22;;;34.52;45.27
38303;BME280;24103;42.454;27.400;2023-08-01T05:36:24;100156.69;;;34.50;45.61
38303;BME280;24103;42.454;27.400;2023-08-01T05:38:50;100164.88;;;34.23;45.77
38303;BME280;24103;42.454;27.400;2023-08-01T05:41:15;100166.75;;;34.67;45.43
38303;BME280;24103;42.454;27.400;2023-08-01T05:43:41;100157.66;;;35.53;43.85
38303;BME280;24103;42.454;27.400;2023-08-01T05:46:06;100152.44;;;35.94;41.81
38303;BME280;24103;42.454;27.400;2023-08-01T05:48:32;100143.69;;;36.13;41.86
38303;BME280;24103;42.454;27.400;2023-08-01T05:50:57;100135.97;;;36.73;40.85
38303;BME280;24103;42.454;27.400;2023-08-01T05:53:23;100135.94;;;36.68;40.53
38303;BME280;24103;42.454;27.400;2023-08-01T05:55:49;100132.09;;;36.74;41.14
38303;BME280;24103;42.454;27.400;2023-08-01T05:58:15;100121.38;;;36.88;39.77
38303;BME280;24103;42.454;27.400;2023-08-01T06:00:41;100128.56;;;36.99;39.31
38303;BME280;24103;42.454;27.400;2023-08-01T06:03:09;100128.50;;;37.61;38.50
38303;BME280;24103;42.454;27.400;2023-08-01T06:05:35;100122.16;;;37.50;38.49
38303;BME280;24103;42.454;27.400;2023-08-01T06:08:01;100125.19;;;37.59;38.82
38303;BME280;24103;42.454;27.400;2023-08-01T06:10:26;100126.78;;;37.86;38.69
38303;BME280;24103;42.454;27.400;2023-08-01T06:12:52;100110.97;;;38.17;37.68
38303;BME280;24103;42.454;27.400;2023-08-01T06:15:17;100109.16;;;37.76;38.22
38303;BME280;24103;42.454;27.400;2023-08-01T06:17:43;100113.47;;;38.08;36.94
38303;BME280;24103;42.454;27.400;2023-08-01T06:20:09;100100.59;;;38.43;36.94
38303;BME280;24103;42.454;27.400;2023-08-01T06:22:35;100096.78;;;38.34;36.47
38303;BME280;24103;42.454;27.400;2023-08-01T06:25:00;100101.13;;;38.90;35.88
38303;BME280;24103;42.454;27.400;2023-08-01T06:27:26;100101.63;;;38.63;36.70
38303;BME280;24103;42.454;27.400;2023-08-01T06:29:51;100102.41;;;38.19;36.92
38303;BME280;24103;42.454;27.400;2023-08-01T06:32:17;100093.72;;;38.41;37.05
38303;BME280;24103;42.454;27.400;2023-08-01T06:34:42;100102.59;;;38.32;36.47
38303;BME280;24103;42.454;27.400;2023-08-01T06:37:08;100099.13;;;38.16;36.94
38303;BME280;24103;42.454;27.400;2023-08-01T06:39:35;100102.16;;;38.15;36.80
38303;BME280;24103;42.454;27.400;2023-08-01T06:42:00;100108.03;;;37.88;37.42
38303;BME280;24103;42.454;27.400;2023-08-01T06:44:26;100106.66;;;37.90;37.35
38303;BME280;24103;42.454;27.400;2023-08-01T06:46:51;100104.09;;;38.04;36.30
38303;BME280;24103;42.454;27.400;2023-08-01T06:49:17;100089.81;;;37.87;35.77
38303;BME280;24103;42.454;27.400;2023-08-01T06:51:42;100087.44;;;37.54;36.47
38303;BME280;24103;42.454;27.400;2023-08-01T06:54:08;100096.53;;;37.55;36.70
38303;BME280;24103;42.454;27.400;2023-08-01T06:56:33;100082.81;;;37.24;36.42
38303;BME280;24103;42.454;27.400;2023-08-01T06:58:59;100098.44;;;37.70;37.25
38303;BME280;24103;42.454;27.400;2023-08-01T07:01:24;100089.94;;;37.51;36.55
38303;BME280;24103;42.454;27.400;2023-08-01T07:03:50;100083.09;;;37.33;36.15
38303;BME280;24103;42.454;27.400;2023-08-01T07:06:19;100082.66;;;37.91;35.21
38303;BME280;24103;42.454;27.400;2023-08-01T07:08:45;100082.44;;;38.37;35.05
38303;BME280;24103;42.454;27.400;2023-08-01T07:11:11;100092.31;;;38.88;33.12
38303;BME280;24103;42.454;27.400;2023-08-01T07:13:36;100081.25;;;38.88;33.31
38303;BME280;24103;42.454;27.400;2023-08-01T07:16:02;100070.34;;;38.73;33.80
38303;BME280;24103;42.454;27.400;2023-08-01T07:18:27;100080.88;;;38.65;33.28
38303;BME280;24103;42.454;27.400;2023-08-01T07:21:00;100082.66;;;37.91;33.30
38303;BME280;24103;42.454;27.400;2023-08-01T07:23:26;100079.69;;;37.61;33.61
38303;BME280;24103;42.454;27.400;2023-08-01T07:25:51;100080.34;;;37.28;33.79
38303;BME280;24103;42.454;27.400;2023-08-01T07:28:17;100077.88;;;36.95;34.18
38303;BME280;24103;42.454;27.400;2023-08-01T07:30:42;100078.94;;;36.63;34.66
38303;BME280;24103;42.454;27.400;2023-08-01T07:33:08;100089.63;;;36.34;35.32
38303;BME280;24103;42.454;27.400;2023-08-01T07:35:33;100086.19;;;36.01;34.81
38303;BME280;24103;42.454;27.400;2023-08-01T07:37:59;100075.59;;;36.36;34.70
38303;BME280;24103;42.454;27.400;2023-08-01T07:40:24;100075.69;;;36.82;34.05
38303;BME280;24103;42.454;27.400;2023-08-01T07:42:50;100080.38;;;37.22;34.01
38303;BME280;24103;42.454;27.400;2023-08-01T07:45:16;100083.09;;;37.33;33.71
38303;BME280;24103;42.454;27.400;2023-08-01T07:47:42;100074.19;;;37.77;32.73
38303;BME280;24103;42.454;27.400;2023-08-01T07:50:07;100083.38;;;38.12;32.48
38303;BME280;24103;42.454;27.400;2023-08-01T07:52:33;100071.09;;;38.39;31.18
38303;BME280;24103;42.454;27.400;2023-08-01T07:54:58;100068.25;;;38.88;31.96
38303;BME280;24103;42.454;27.400;2023-08-01T07:57:24;100063.59;;;39.18;29.41
38303;BME280;24103;42.454;27.400;2023-08-01T07:59:49;100062.06;;;39.02;29.42
38303;BME280;24103;42.454;27.400;2023-08-01T08:02:15;100052.81;;;39.17;26.88
38303;BME280;24103;42.454;27.400;2023-08-01T08:04:40;100040.50;;;39.09;28.10
38303;BME280;24103;42.454;27.400;2023-08-01T08:07:06;100058.00;;;39.23;28.65
38303;BME280;24103;42.454;27.400;2023-08-01T08:09:31;100047.72;;;39.00;28.68
38303;BME280;24103;42.454;27.400;2023-08-01T08:11:57;100048.38;;;38.52;28.90
38303;BME280;24103;42.454;27.400;2023-08-01T08:14:23;100043.75;;;38.42;29.26
38303;BME280;24103;42.454;27.400;2023-08-01T08:16:49;100056.94;;;38.50;30.79
38303;BME280;24103;42.454;27.400;2023-08-01T08:19:15;100050.97;;;37.83;30.44
38303;BME280;24103;42.454;27.400;2023-08-01T08:21:40;100054.19;;;37.04;31.76
38303;BME280;24103;42.454;27.400;2023-08-01T08:24:06;100053.81;;;36.19;33.54
38303;BME280;24103;42.454;27.400;2023-08-01T08:26:31;100060.09;;;35.08;34.32
38303;BME280;24103;42.454;27.400;2023-08-01T08:28:59;100077.28;;;34.16;36.14
38303;BME280;24103;42.454;27.400;2023-08-01T08:31:25;100076.56;;;33.60;36.96
38303;BME280;24103;42.454;27.400;2023-08-01T08:33:50;100076.06;;;33.63;37.83
38303;BME280;24103;42.454;27.400;2023-08-01T08:36:16;100082.28;;;33.75;38.29
38303;BME280;24103;42.454;27.400;2023-08-01T08:38:41;100077.56;;;33.54;38.14
38303;BME280;24103;42.454;27.400;2023-08-01T08:41:13;100079.59;;;33.24;38.77
38303;BME280;24103;42.454;27.400;2023-08-01T08:43:39;100079.94;;;32.77;39.09
38303;BME280;24103;42.454;27.400;2023-08-01T08:46:08;100082.34;;;32.74;40.62
38303;BME280;24103;42.454;27.400;2023-08-01T08:48:35;100067.00;;;32.73;40.10
38303;BME280;24103;42.454;27.400;2023-08-01T08:51:02;100084.31;;;32.32;41.08
38303;BME280;24103;42.454;27.400;2023-08-01T08:53:30;100073.59;;;32.31;40.96
38303;BME280;24103;42.454;27.400;2023-08-01T08:55:57;100081.56;;;32.32;41.55
38303;BME280;24103;42.454;27.400;2023-08-01T08:58:23;100076.59;;;32.29;40.80
38303;BME280;24103;42.454;27.400;2023-08-01T09:00:49;100080.44;;;32.05;42.08
38303;BME280;24103;42.454;27.400;2023-08-01T09:03:15;100072.94;;;31.71;41.99
38303;BME280;24103;42.454;27.400;2023-08-01T09:05:48;100081.09;;;31.48;42.53
38303;BME280;24103;42.454;27.400;2023-08-01T09:08:19;100079.94;;;31.67;43.52
38303;BME280;24103;42.454;27.400;2023-08-01T09:10:45;100067.94;;;31.68;42.97
38303;BME280;24103;42.454;27.400;2023-08-01T09:13:11;100078.16;;;31.26;43.81
38303;BME280;24103;42.454;27.400;2023-08-01T09:15:37;100080.84;;;31.49;44.60
38303;BME280;24103;42.454;27.400;2023-08-01T09:18:06;100080.38;;;31.88;44.88
38303;BME280;24103;42.454;27.400;2023-08-01T09:20:46;100066.25;;;31.79;43.10
38303;BME280;24103;42.454;27.400;2023-08-01T09:23:12;100083.31;;;31.98;44.72
38303;BME280;24103;42.454;27.400;2023-08-01T09:25:37;100056.38;;;31.90;44.61
38303;BME280;24103;42.454;27.400;2023-08-01T09:28:23;100077.72;;;32.05;43.58
38303;BME280;24103;42.454;27.400;2023-08-01T09:30:51;100079.78;;;31.74;43.45
38303;BME280;24103;42.454;27.400;2023-08-01T09:33:17;100076.69;;;31.82;44.30
38303;BME280;24103;42.454;27.400;2023-08-01T09:35:44;100080.72;;;31.91;43.41
38303;BME280;24103;42.454;27.400;2023-08-01T09:38:14;100073.03;;;32.17;44.36
38303;BME280;24103;42.454;27.400;2023-08-01T09:40:44;100068.41;;;32.06;42.88
38303;BME280;24103;42.454;27.400;2023-08-01T09:43:11;100069.22;;;31.89;42.75
38303;BME280;24103;42.454;27.400;2023-08-01T09:45:37;100070.75;;;31.85;43.47
38303;BME280;24103;42.454;27.400;2023-08-01T09:48:03;100074.97;;;32.05;43.61
38303;BME280;24103;42.454;27.400;2023-08-01T09:50:29;100069.41;;;32.00;43.06
38303;BME280;24103;42.454;27.400;2023-08-01T09:52:54;100068.22;;;32.07;43.29
38303;BME280;24103;42.454;27.400;2023-08-01T09:55:33;100063.41;;;32.26;42.60
38303;BME280;24103;42.454;27.400;2023-08-01T09:57:59;100060.84;;;32.37;42.46
38303;BME280;24103;42.454;27.400;2023-08-01T10:00:26;100055.25;;;32.14;42.37
38303;BME280;24103;42.454;27.400;2023-08-01T10:02:52;100047.09;;;32.31;42.05
38303;BME280;24103;42.454;27.400;2023-08-01T10:05:19;100033.25;;;32.38;41.77
38303;BME280;24103;42.454;27.400;2023-08-01T10:07:47;100040.00;;;32.47;41.17
38303;BME280;24103;42.454;27.400;2023-08-01T10:10:15;100033.50;;;32.37;42.41
38303;BME280;24103;42.454;27.400;2023-08-01T10:12:45;100033.94;;;32.45;42.08
38303;BME280;24103;42.454;27.400;2023-08-01T10:15:11;100031.31;;;32.50;42.29
38303;BME280;24103;42.454;27.400;2023-08-01T10:17:37;100029.16;;;32.53;42.12
38303;BME280;24103;42.454;27.400;2023-08-01T10:20:03;100013.81;;;32.51;40.99
38303;BME280;24103;42.454;27.400;2023-08-01T10:22:30;100018.41;;;32.80;41.46
38303;BME280;24103;42.454;27.400;2023-08-01T10:24:56;100019.97;;;32.93;40.93
38303;BME280;24103;42.454;27.400;2023-08-01T10:27:23;100007.13;;;33.10;40.33
38303;BME280;24103;42.454;27.400;2023-08-01T10:29:59;100020.16;;;33.20;40.97
38303;BME280;24103;42.454;27.400;2023-08-01T10:32:35;99995.31;;;33.10;40.08
38303;BME280;24103;42.454;27.400;2023-08-01T10:35:02;100019.72;;;33.11;39.84
38303;BME280;24103;42.454;27.400;2023-08-01T10:37:41;99976.31;;;32.64;40.35
38303;BME280;24103;42.454;27.400;2023-08-01T10:40:07;99994.38;;;32.65;40.92
38303;BME280;24103;42.454;27.400;2023-08-01T10:42:41;100008.34;;;32.51;40.67
38303;BME280;24103;42.454;27.400;2023-08-01T10:45:08;100007.03;;;32.54;40.57
38303;BME280;24103;42.454;27.400;2023-08-01T10:47:44;99985.63;;;32.34;39.84
38303;BME280;24103;42.454;27.400;2023-08-01T10:50:17;99990.50;;;32.32;40.89
38303;BME280;24103;42.454;27.400;2023-08-01T10:52:43;99988.47;;;32.10;40.94
38303;BME280;24103;42.454;27.400;2023-08-01T10:55:10;99976.34;;;32.06;41.68
38303;BME280;24103;42.454;27.400;2023-08-01T10:57:39;99983.88;;;32.28;39.99
38303;BME280;24103;42.454;27.400;2023-08-01T11:00:15;99977.84;;;32.60;40.98
38303;BME280;24103;42.454;27.400;2023-08-01T11:02:41;99977.13;;;32.81;41.46
38303;BME280;24103;42.454;27.400;2023-08-01T11:05:07;99952.66;;;32.75;38.86
38303;BME280;24103;42.454;27.400;2023-08-01T11:07:34;99956.47;;;32.91;40.73
38303;BME280;24103;42.454;27.400;2023-08-01T11:10:09;99972.78;;;33.02;39.77
38303;BME280;24103;42.454;27.400;2023-08-01T11:12:39;99956.72;;;32.89;38.95
38303;BME280;24103;42.454;27.400;2023-08-01T11:15:07;99971.66;;;32.64;42.38
38303;BME280;24103;42.454;27.400;2023-08-01T11:17:37;99950.44;;;32.38;42.32
38303;BME280;24103;42.454;27.400;2023-08-01T11:20:08;99969.09;;;32.12;44.93
38303;BME280;24103;42.454;27.400;2023-08-01T11:22:34;99974.91;;;32.15;45.49
38303;BME280;24103;42.454;27.400;2023-08-01T11:25:01;99960.50;;;31.51;44.06
38303;BME280;24103;42.454;27.400;2023-08-01T11:27:27;99968.09;;;31.49;45.64
38303;BME280;24103;42.454;27.400;2023-08-01T11:29:54;99961.09;;;31.41;44.67
38303;BME280;24103;42.454;27.400;2023-08-01T11:32:19;99980.56;;;31.45;44.93
38303;BME280;24103;42.454;27.400;2023-08-01T11:34:46;99960.34;;;31.17;46.48
38303;BME280;24103;42.454;27.400;2023-08-01T11:37:13;99963.88;;;31.29;46.60
38303;BME280;24103;42.454;27.400;2023-08-01T11:39:39;99954.53;;;31.01;47.13
38303;BME280;24103;42.454;27.400;2023-08-01T11:42:05;99964.31;;;30.67;49.54
38303;BME280;24103;42.454;27.400;2023-08-01T11:44:31;99962.34;;;30.74;50.02
38303;BME280;24103;42.454;27.400;2023-08-01T11:46:57;99949.91;;;31.02;47.60
38303;BME280;24103;42.454;27.400;2023-08-01T11:49:23;99949.41;;;31.05;49.65
38303;BME280;24103;42.454;27.400;2023-08-01T11:51:49;99938.59;;;30.75;48.15
38303;BME280;24103;42.454;27.400;2023-08-01T11:54:15;99960.53;;;30.56;48.83
38303;BME280;24103;42.454;27.400;2023-08-01T11:56:41;99955.75;;;30.40;49.16
38303;BME280;24103;42.454;27.400;2023-08-01T11:59:14;99947.31;;;30.29;49.15
38303;BME280;24103;42.454;27.400;2023-08-01T12:01:42;99950.91;;;30.42;50.71
38303;BME280;24103;42.454;27.400;2023-08-01T12:04:08;99946.09;;;30.56;49.70
38303;BME280;24103;42.454;27.400;2023-08-01T12:06:33;99933.50;;;30.55;48.14
38303;BME280;24103;42.454;27.400;2023-08-01T12:09:08;99929.97;;;30.54;49.58
38303;BME280;24103;42.454;27.400;2023-08-01T12:11:34;99928.41;;;30.46;48.17
38303;BME280;24103;42.454;27.400;2023-08-01T12:16:27;99936.03;;;30.26;49.42
38303;BME280;24103;42.454;27.400;2023-08-01T12:18:53;99927.50;;;30.34;50.12
38303;BME280;24103;42.454;27.400;2023-08-01T12:21:18;99919.66;;;30.26;49.98
38303;BME280;24103;42.454;27.400;2023-08-01T12:23:44;99932.28;;;30.39;50.20
38303;BME280;24103;42.454;27.400;2023-08-01T12:26:09;99932.19;;;30.45;52.40
38303;BME280;24103;42.454;27.400;2023-08-01T12:28:36;99920.69;;;30.43;49.75
38303;BME280;24103;42.454;27.400;2023-08-01T12:31:01;99935.69;;;30.34;52.79
38303;BME280;24103;42.454;27.400;2023-08-01T12:33:28;99920.88;;;30.30;56.93
38303;BME280;24103;42.454;27.400;2023-08-01T12:35:54;99932.47;;;30.25;54.83
38303;BME280;24103;42.454;27.400;2023-08-01T12:38:19;99923.59;;;30.30;55.06